Time;durP1;ratioP1;P1;durP2;ratioP2;P2;SDS_P1;SDS_P2;PMS_P1;PMS_P2;Temp;Humidity;BMP_temperature;BMP_pressure;BME280_temperature;BME280_humidity;BME280_pressure;Samples;Min_cycle;Max_cycle;Signal;HPM_P1;HPM_P2
2022/07/01 00:01:44;;;;;;;39.60;27.25;;;;;;;12.83;100.00;101482.94;6308658;22;20444;-79
2022/07/01 00:04:10;;;;;;;39.25;26.55;;;;;;;12.53;100.00;101470.09;6308947;22;20083;-77
2022/07/01 00:06:35;;;;;;;37.38;26.30;;;;;;;12.71;100.00;101513.03;6308589;22;20067;-80
2022/07/01 00:09:01;;;;;;;36.25;25.35;;;;;;;12.67;100.00;101518.47;6308264;22;20049;-79
2022/07/01 00:11:26;;;;;;;35.00;25.17;;;;;;;12.41;100.00;101479.44;6308452;22;20042;-79
2022/07/01 00:13:51;;;;;;;32.58;24.38;;;;;;;12.58;100.00;101519.84;6308938;22;20003;-79
2022/07/01 00:16:17;;;;;;;33.63;24.25;;;;;;;12.53;100.00;101507.19;6308144;22;20003;-79
2022/07/01 00:18:42;;;;;;;35.65;24.63;;;;;;;12.27;100.00;101451.75;6308102;22;20049;-79
2022/07/01 00:21:07;;;;;;;31.95;23.40;;;;;;;12.43;100.00;101492.28;6308121;22;20012;-79
2022/07/01 00:23:33;;;;;;;31.65;23.42;;;;;;;12.06;100.00;101434.94;6308640;22;20000;-79
2022/07/01 00:25:58;;;;;;;34.22;23.40;;;;;;;12.37;100.00;101495.25;6308537;22;19999;-79
2022/07/01 00:28:24;;;;;;;32.13;23.10;;;;;;;12.37;100.00;101496.06;6308798;22;20004;-78
2022/07/01 00:30:49;;;;;;;33.10;21.65;;;;;;;12.33;100.00;101490.25;6308336;22;20026;-80
2022/07/01 00:33:15;;;;;;;30.42;21.90;;;;;;;12.28;100.00;101494.88;6307502;22;19995;-79
2022/07/01 00:35:40;;;;;;;28.50;20.63;;;;;;;12.06;100.00;101474.59;6308195;22;20003;-78
2022/07/01 00:38:05;;;;;;;29.85;21.00;;;;;;;12.23;100.00;101499.50;6308681;22;20078;-78
2022/07/01 00:40:31;;;;;;;28.70;19.70;;;;;;;12.18;100.00;101479.97;6308113;22;20007;-78
2022/07/01 00:42:56;;;;;;;32.22;19.20;;;;;;;12.18;100.00;101479.97;6308566;22;20369;-78
2022/07/01 00:45:21;;;;;;;28.08;19.13;;;;;;;11.98;100.00;101445.72;6308283;22;19999;-79
2022/07/01 00:47:47;;;;;;;29.15;19.70;;;;;;;12.20;100.00;101475.56;6308144;22;20007;-79
2022/07/01 00:50:15;;;;;;;29.38;20.17;;;;;;;11.95;100.00;101424.38;6308497;22;20076;-80
2022/07/01 00:52:41;;;;;;;35.08;23.33;;;;;;;11.95;100.00;101424.38;6308449;22;19999;-79
2022/07/01 00:55:09;;;;;;;31.35;21.05;;;;;;;12.30;100.00;101479.25;6308491;22;20007;-79
2022/07/01 00:57:36;;;;;;;36.35;23.10;;;;;;;12.20;100.00;101458.25;6308271;22;19999;-79
2022/07/01 01:00:05;;;;;;;36.15;22.73;;;;;;;12.41;100.00;101492.41;6308075;22;20026;-84
2022/07/01 01:02:30;;;;;;;38.08;22.65;;;;;;;12.22;100.00;101455.56;6308079;22;20007;-79
2022/07/01 01:04:56;;;;;;;35.72;23.58;;;;;;;12.45;100.00;101474.91;6308118;22;19999;-80
2022/07/01 01:07:21;;;;;;;34.58;24.55;;;;;;;12.47;100.00;101486.00;6280844;22;19999;-81
2022/07/01 01:09:47;;;;;;;36.00;24.52;;;;;;;12.40;100.00;101464.84;6308277;22;20414;-84
2022/07/01 01:12:14;;;;;;;40.00;24.85;;;;;;;12.53;100.00;101503.78;6307559;22;20003;-80
2022/07/01 01:14:50;;;;;;;38.20;25.30;;;;;;;12.18;100.00;101449.72;6308021;22;20003;-85
2022/07/01 01:17:16;;;;;;;35.80;24.58;;;;;;;12.00;100.00;101414.59;6307934;22;20115;-83
2022/07/01 01:19:42;;;;;;;38.85;26.08;;;;;;;12.49;100.00;101491.94;6308215;22;20008;-80
2022/07/01 01:22:09;;;;;;;34.60;24.35;;;;;;;12.46;100.00;101494.69;6308110;22;20003;-84
2022/07/01 01:24:36;;;;;;;36.75;25.65;;;;;;;12.60;100.00;101530.97;6308150;22;20011;-82
2022/07/01 01:27:03;;;;;;;37.58;25.15;;;;;;;12.47;100.00;101507.56;6307995;22;19999;-82
2022/07/01 01:29:29;;;;;;;41.80;26.50;;;;;;;12.67;100.00;101539.19;6308202;22;20011;-80
2022/07/01 01:31:54;;;;;;;40.20;26.73;;;;;;;12.71;100.00;101538.09;6308150;22;20425;-80
2022/07/01 01:34:19;;;;;;;34.60;24.83;;;;;;;12.62;100.00;101529.13;6307740;22;20026;-81
2022/07/01 01:36:44;;;;;;;36.20;25.27;;;;;;;12.74;100.00;101535.31;6307832;22;20072;-80
2022/07/01 01:39:16;;;;;;;40.92;26.10;;;;;;;12.74;100.00;101533.56;6308258;22;19995;-83
2022/07/01 01:41:42;;;;;;;36.75;25.48;;;;;;;12.72;100.00;101535.41;6307713;22;20081;-80
2022/07/01 01:44:07;;;;;;;39.58;26.83;;;;;;;12.42;100.00;101477.69;6307788;22;20428;-80
2022/07/01 01:46:33;;;;;;;35.78;24.35;;;;;;;12.75;100.00;101529.22;6307749;22;20002;-80
2022/07/01 01:48:58;;;;;;;36.50;25.17;;;;;;;12.79;100.00;101528.94;6307752;22;20003;-80
2022/07/01 01:51:24;;;;;;;34.97;22.58;;;;;;;12.54;100.00;101508.84;6307795;22;20006;-83
2022/07/01 01:53:49;;;;;;;34.22;24.30;;;;;;;12.51;100.00;101497.84;6308039;22;19999;-79
2022/07/01 01:56:15;;;;;;;39.25;23.60;;;;;;;12.69;100.00;101527.84;6307594;22;20006;-80
2022/07/01 01:58:42;;;;;;;36.88;23.63;;;;;;;12.65;100.00;101515.97;6307805;22;20008;-81
2022/07/01 02:01:10;;;;;;;34.15;22.90;;;;;;;12.28;100.00;101448.25;6307680;22;20103;-80
2022/07/01 02:03:35;;;;;;;34.00;23.38;;;;;;;12.61;100.00;101509.31;6307751;22;20070;-80
2022/07/01 02:06:01;;;;;;;33.38;23.88;;;;;;;12.53;100.00;101501.19;6307734;22;20346;-79
2022/07/01 02:08:26;;;;;;;32.60;22.52;;;;;;;12.68;100.00;101525.31;6307582;22;20011;-80
2022/07/01 02:10:51;;;;;;;32.50;23.65;;;;;;;12.61;100.00;101535.25;6307653;22;20134;-81
2022/07/01 02:13:17;;;;;;;32.60;23.33;;;;;;;12.65;100.00;101541.88;6307282;22;20078;-80
2022/07/01 02:15:42;;;;;;;35.20;23.48;;;;;;;12.67;100.00;101552.16;6307601;22;20003;-80
2022/07/01 02:18:07;;;;;;;32.22;22.65;;;;;;;12.67;100.00;101560.75;6307512;22;20364;-84
2022/07/01 02:20:33;;;;;;;32.03;22.35;;;;;;;12.66;100.00;101558.28;6307201;22;20018;-80
2022/07/01 02:22:59;;;;;;;34.08;24.48;;;;;;;12.63;100.00;101567.06;6307318;22;20448;-79
2022/07/01 02:25:24;;;;;;;35.33;24.70;;;;;;;12.54;100.00;101552.91;6280265;22;19996;-81
2022/07/01 02:27:50;;;;;;;37.88;25.30;;;;;;;12.50;100.00;101548.84;6307177;22;20000;-80
2022/07/01 02:30:15;;;;;;;38.72;24.80;;;;;;;12.67;100.00;101580.66;6307457;22;19999;-80
2022/07/01 02:32:40;;;;;;;37.55;25.20;;;;;;;12.63;100.00;101591.22;6307340;22;20007;-80
2022/07/01 02:35:06;;;;;;;37.80;26.27;;;;;;;12.43;100.00;101546.69;6307282;22;20011;-79
2022/07/01 02:37:33;;;;;;;37.53;26.70;;;;;;;12.47;100.00;101530.88;6307573;22;20014;-79
2022/07/01 02:39:58;;;;;;;39.10;26.85;;;;;;;12.53;100.00;101522.75;6307345;22;20368;-80
2022/07/01 02:42:25;;;;;;;40.25;25.80;;;;;;;12.64;100.00;101525.50;6307047;22;20031;-76
2022/07/01 02:44:51;;;;;;;41.45;27.20;;;;;;;12.65;100.00;101539.28;6278515;22;20003;-79
2022/07/01 02:47:17;;;;;;;35.15;25.63;;;;;;;12.67;100.00;101546.97;6307315;22;20416;-80
2022/07/01 02:49:42;;;;;;;39.22;27.02;;;;;;;12.48;100.00;101503.19;6306847;22;20329;-80
2022/07/01 02:52:08;;;;;;;41.17;27.88;;;;;;;12.64;100.00;101545.41;6307106;22;20004;-80
2022/07/01 02:54:33;;;;;;;41.03;27.77;;;;;;;12.67;100.00;101555.59;6307237;22;19995;-80
2022/07/01 02:56:58;;;;;;;40.05;27.88;;;;;;;12.61;100.00;101530.06;6307236;22;20356;-80
2022/07/01 02:59:23;;;;;;;39.65;28.20;;;;;;;12.64;100.00;101556.59;6307072;22;20021;-80
2022/07/01 03:01:49;;;;;;;39.22;27.52;;;;;;;12.64;100.00;101560.97;6307243;22;20018;-80
2022/07/01 03:04:15;;;;;;;42.47;28.55;;;;;;;12.57;100.00;101555.28;6307157;22;20350;-83
2022/07/01 03:06:41;;;;;;;42.83;29.20;;;;;;;12.58;100.00;101558.72;6307012;22;20079;-81
2022/07/01 03:09:06;;;;;;;43.03;30.52;;;;;;;12.42;100.00;101538.09;6307047;22;19999;-81
2022/07/01 03:11:31;;;;;;;46.70;30.27;;;;;;;12.32;100.00;101526.59;6306473;22;20003;-81
2022/07/01 03:13:57;;;;;;;44.72;30.17;;;;;;;12.55;100.00;101564.09;6279693;22;20074;-83
2022/07/01 03:16:22;;;;;;;44.45;29.40;;;;;;;12.58;100.00;101574.25;6307077;22;20325;-82
2022/07/01 03:18:48;;;;;;;45.38;30.60;;;;;;;12.45;100.00;101555.19;6306740;22;20064;-81
2022/07/01 03:21:13;;;;;;;46.30;30.38;;;;;;;12.59;100.00;101573.38;6306487;22;20094;-82
2022/07/01 03:23:38;;;;;;;46.40;30.17;;;;;;;12.55;100.00;101567.53;6306959;22;20022;-79
2022/07/01 03:26:04;;;;;;;44.10;29.77;;;;;;;12.74;100.00;101571.59;6307357;22;20317;-83
2022/07/01 03:28:31;;;;;;;41.13;29.08;;;;;;;12.76;100.00;101567.16;6307298;22;20003;-79
2022/07/01 03:30:56;;;;;;;38.20;27.25;;;;;;;12.77;100.00;101566.22;6307296;22;20032;-80
2022/07/01 03:33:22;;;;;;;39.95;27.90;;;;;;;12.49;100.00;101526.44;6307158;22;20353;-79
2022/07/01 03:35:47;;;;;;;37.58;26.80;;;;;;;12.79;100.00;101569.59;6307558;22;20328;-80
2022/07/01 03:38:13;;;;;;;41.03;27.50;;;;;;;12.48;100.00;101539.47;6307025;22;19999;-85
2022/07/01 03:40:38;;;;;;;42.35;27.10;;;;;;;12.73;100.00;101583.72;6306711;22;20082;-84
2022/07/01 03:43:05;;;;;;;40.88;28.85;;;;;;;12.68;100.00;101590.09;6279136;22;20018;-85
2022/07/01 03:45:31;;;;;;;45.13;29.88;;;;;;;12.58;100.00;101582.88;6306914;22;20329;-79
2022/07/01 03:47:56;;;;;;;44.83;30.45;;;;;;;12.69;100.00;101594.38;6307084;22;20316;-85
2022/07/01 03:50:25;;;;;;;46.28;29.38;;;;;;;12.67;100.00;101591.84;6307012;22;19999;-85
2022/07/01 03:55:36;;;;;;;45.08;28.45;;;;;;;12.77;100.00;101616.31;6306692;22;20018;-81
2022/07/01 03:58:01;;;;;;;46.25;30.10;;;;;;;12.68;100.00;101608.25;6307061;22;20003;-80
2022/07/01 04:00:27;;;;;;;44.47;29.67;;;;;;;12.62;100.00;101591.31;6307044;22;20077;-83
2022/07/01 04:02:52;;;;;;;43.95;30.42;;;;;;;12.81;100.00;101628.16;6306314;22;20003;-84
2022/07/01 04:05:18;;;;;;;42.97;28.60;;;;;;;12.84;100.00;101627.97;6307252;22;20007;-84
2022/07/01 04:07:43;;;;;;;44.38;29.13;;;;;;;12.84;100.00;101635.75;6306856;22;20003;-83
2022/07/01 04:10:08;;;;;;;41.40;28.05;;;;;;;12.84;100.00;101627.16;6306879;22;20015;-81
2022/07/01 04:12:34;;;;;;;40.03;27.85;;;;;;;12.70;100.00;101611.59;6306741;22;20011;-83
2022/07/01 04:14:59;;;;;;;38.35;27.58;;;;;;;12.72;100.00;101623.53;6307004;22;19999;-83
2022/07/01 04:17:25;;;;;;;37.78;27.25;;;;;;;12.66;100.00;101623.88;6306732;22;20053;-82
2022/07/01 04:19:50;;;;;;;41.38;28.60;;;;;;;12.72;100.00;101622.69;6305995;22;20090;-83
2022/07/01 04:22:35;;;;;;;36.95;27.13;;;;;;;12.79;100.00;101637.81;6306914;22;20428;-83
2022/07/01 04:25:03;;;;;;;40.70;27.83;;;;;;;12.76;100.00;101637.13;6306655;22;20003;-84
2022/07/01 04:27:28;;;;;;;43.40;28.50;;;;;;;12.66;100.00;101641.19;6306524;22;20006;-84
2022/07/01 04:29:54;;;;;;;41.13;28.67;;;;;;;12.65;100.00;101635.19;6306609;22;20031;-84
2022/07/01 04:32:19;;;;;;;38.70;28.05;;;;;;;12.45;100.00;101597.47;6308019;22;20006;-84
2022/07/01 04:34:45;;;;;;;40.17;27.38;;;;;;;12.52;100.00;101618.69;6308562;22;20030;-83
2022/07/01 04:37:10;;;;;;;44.97;28.58;;;;;;;12.52;100.00;101619.53;6308450;22;20007;-84
2022/07/01 04:39:35;;;;;;;42.88;28.65;;;;;;;12.37;100.00;101609.22;6307812;22;20038;-79
2022/07/01 04:42:01;;;;;;;45.83;29.38;;;;;;;12.49;100.00;101637.00;6308419;22;20042;-84
2022/07/01 04:44:31;;;;;;;45.67;30.05;;;;;;;12.53;100.00;101633.31;6308606;22;20003;-78
2022/07/01 04:46:58;;;;;;;44.17;30.33;;;;;;;12.60;100.00;101650.19;6308649;22;20007;-84
2022/07/01 04:49:24;;;;;;;47.67;30.35;;;;;;;12.65;100.00;101653.31;6308431;22;20045;-83
2022/07/01 04:51:49;;;;;;;44.83;30.00;;;;;;;12.70;100.00;101653.06;6308373;22;20007;-81
2022/07/01 04:54:14;;;;;;;51.47;31.40;;;;;;;12.77;100.00;101650.00;6308820;22;20039;-80
2022/07/01 04:56:40;;;;;;;45.80;30.77;;;;;;;12.86;100.00;101635.66;6308365;22;20324;-82
2022/07/01 04:59:05;;;;;;;44.83;30.30;;;;;;;12.85;100.00;101621.88;6281012;22;20007;-83
2022/07/01 05:01:31;;;;;;;43.95;30.35;;;;;;;12.97;100.00;101632.44;6308650;22;20086;-78
2022/07/01 05:03:57;;;;;;;43.35;28.67;;;;;;;12.98;100.00;101634.09;6308298;22;20018;-84
2022/07/01 05:06:23;;;;;;;42.20;29.02;;;;;;;13.02;100.00;101638.19;6308253;22;20014;-83
2022/07/01 05:08:48;;;;;;;41.15;28.63;;;;;;;13.03;100.00;101640.69;6280264;22;20007;-85
2022/07/01 05:11:14;;;;;;;40.10;28.33;;;;;;;13.11;100.00;101637.63;6308460;22;19999;-82
2022/07/01 05:13:39;;;;;;;40.25;27.42;;;;;;;13.15;100.00;101644.28;6308596;22;20007;-83
2022/07/01 05:16:05;;;;;;;39.75;27.52;;;;;;;13.18;100.00;101646.72;6308262;22;20306;-84
2022/07/01 05:23:58;;;;;;;34.90;23.58;;;;;;;13.02;100.00;101604.47;6308413;22;20030;-85
2022/07/01 05:26:25;;;;;;;33.22;22.38;;;;;;;13.32;100.00;101645.88;6308523;22;19999;-85
2022/07/01 05:28:54;;;;;;;30.15;22.02;;;;;;;13.33;100.00;101644.97;6307935;22;20035;-87
2022/07/01 05:31:20;;;;;;;33.60;21.70;;;;;;;13.32;100.00;101643.28;6307858;22;20432;-78
2022/07/01 05:33:46;;;;;;;30.02;21.13;;;;;;;13.17;100.00;101614.75;6308362;22;20034;-84
2022/07/01 05:36:12;;;;;;;30.67;21.27;;;;;;;13.36;100.00;101634.38;6307921;22;20056;-81
2022/07/01 05:38:38;;;;;;;27.15;21.00;;;;;;;13.40;100.00;101638.47;6308299;22;20082;-83
2022/07/01 05:41:03;;;;;;;28.10;20.50;;;;;;;13.24;100.00;101604.03;6308089;22;20086;-83
2022/07/01 05:43:30;;;;;;;26.20;19.02;;;;;;;13.47;100.00;101638.00;6308229;22;20010;-83
2022/07/01 05:45:55;;;;;;;27.83;19.42;;;;;;;13.52;100.00;101626.50;6307563;22;20074;-82
2022/07/01 05:48:21;;;;;;;27.65;19.92;;;;;;;13.56;100.00;101630.53;6307951;22;20042;-85
2022/07/01 05:50:47;;;;;;;27.40;19.50;;;;;;;13.64;100.00;101636.94;6307656;22;19999;-83
2022/07/01 05:53:12;;;;;;;29.08;19.63;;;;;;;13.51;99.66;101617.03;6306837;22;20301;-79
2022/07/01 05:55:38;;;;;;;29.58;19.50;;;;;;;13.53;99.15;101617.78;6308785;22;20061;-83
2022/07/01 05:58:03;;;;;;;27.75;18.85;;;;;;;13.72;99.86;101644.25;6307175;22;20390;-83
2022/07/01 06:00:29;;;;;;;26.10;18.58;;;;;;;13.66;99.00;101626.44;6280759;22;20078;-80
2022/07/01 06:02:54;;;;;;;29.05;19.55;;;;;;;14.16;98.50;101649.19;6307462;22;20084;-82
2022/07/01 06:05:19;;;;;;;28.33;18.92;;;;;;;15.84;92.54;101647.28;6307613;22;20067;-77
2022/07/01 06:07:45;;;;;;;22.23;17.83;;;;;;;17.61;83.11;101642.50;6307832;22;20006;-83
2022/07/01 06:10:11;;;;;;;23.27;15.98;;;;;;;19.07;74.26;101629.50;6307391;22;20003;-79
2022/07/01 06:12:38;;;;;;;20.23;15.10;;;;;;;18.91;72.63;101640.47;6307105;22;20452;-81
2022/07/01 06:15:04;;;;;;;22.23;14.30;;;;;;;19.20;71.63;101639.75;6307836;22;19999;-78
2022/07/01 06:17:29;;;;;;;19.13;14.70;;;;;;;18.87;70.83;101623.34;6307719;22;20022;-78
2022/07/01 06:19:59;;;;;;;18.58;13.80;;;;;;;18.05;71.38;101594.50;6307125;22;20413;-74
2022/07/01 06:22:24;;;;;;;20.70;14.80;;;;;;;18.75;71.77;101644.50;6307583;22;20011;-76
2022/07/01 06:24:49;;;;;;;17.73;14.60;;;;;;;19.74;69.41;101639.34;6307427;22;20013;-80
2022/07/01 06:27:14;;;;;;;17.85;12.77;;;;;;;19.93;65.34;101640.34;6307141;22;20006;-86
2022/07/01 06:29:40;;;;;;;17.10;13.57;;;;;;;18.68;68.71;101631.16;6307522;22;20007;-90
2022/07/01 06:32:06;;;;;;;18.20;13.40;;;;;;;18.61;69.53;101629.97;6307796;22;20014;-78
2022/07/01 06:34:31;;;;;;;18.58;13.48;;;;;;;18.24;69.60;101598.22;6307479;22;20379;-80
2022/07/01 06:37:00;;;;;;;17.33;14.07;;;;;;;18.08;70.95;101597.81;6307173;22;20000;-81
2022/07/01 06:39:26;;;;;;;17.15;12.80;;;;;;;18.92;69.02;101630.84;6308084;22;20057;-82
2022/07/01 06:41:51;;;;;;;17.17;13.15;;;;;;;18.87;65.54;101515.22;6307041;22;20039;-87
2022/07/01 06:44:17;;;;;;;17.85;13.00;;;;;;;19.81;63.30;101581.16;6307395;22;20448;-82
2022/07/01 06:46:42;;;;;;;15.95;11.88;;;;;;;20.47;62.27;101610.94;6307263;22;20000;-82
2022/07/01 06:49:07;;;;;;;16.60;10.75;;;;;;;21.43;58.31;101628.09;6278595;22;20060;-83
2022/07/01 06:51:33;;;;;;;16.25;11.65;;;;;;;22.14;57.20;101611.53;6307513;22;20011;-80
2022/07/01 06:53:58;;;;;;;18.75;10.57;;;;;;;23.01;54.64;101628.16;6307242;22;20007;-80
2022/07/01 06:56:29;;;;;;;13.32;9.25;;;;;;;23.37;53.30;101587.44;6307652;22;20385;-83
2022/07/01 06:58:57;;;;;;;13.63;9.98;;;;;;;23.50;50.36;101575.59;6307384;22;20003;-83
2022/07/01 07:01:28;;;;;;;10.38;8.15;;;;;;;24.52;50.58;101633.19;6307393;22;20007;-86
2022/07/01 07:03:55;;;;;;;14.13;8.52;;;;;;;24.35;49.97;101644.78;6306628;22;20121;-82
2022/07/01 07:06:20;;;;;;;10.95;8.35;;;;;;;24.29;51.71;101635.69;6307337;22;20007;-84
2022/07/01 07:08:46;;;;;;;13.00;9.43;;;;;;;24.68;51.04;101638.47;6307103;22;20065;-83
2022/07/01 07:11:12;;;;;;;11.25;8.43;;;;;;;24.80;48.68;101586.91;6307003;22;20057;-83
2022/07/01 07:13:37;;;;;;;13.75;8.25;;;;;;;25.76;47.03;101651.84;6307033;22;20000;-85
2022/07/01 07:16:03;;;;;;;11.18;7.70;;;;;;;25.73;45.61;101623.09;6279523;22;20007;-87
2022/07/01 07:18:31;;;;;;;11.25;8.45;;;;;;;26.25;45.03;101668.19;6307034;22;20070;-86
2022/07/01 07:20:59;;;;;;;11.13;7.70;;;;;;;25.83;44.72;101658.09;6306738;22;20368;-86
2022/07/01 07:23:27;;;;;;;11.18;7.57;;;;;;;24.34;47.67;101661.59;6306743;22;20490;-88
2022/07/01 07:26:15;;;;;;;18.63;7.00;;;;;;;22.84;50.54;101666.78;6306893;22;20006;-87
2022/07/01 07:28:43;;;;;;;8.98;6.97;;;;;;;21.77;54.71;101643.22;6305148;22;20050;-85
2022/07/01 07:31:09;;;;;;;11.82;6.80;;;;;;;21.90;52.32;101651.56;6304890;22;20022;-82
2022/07/01 07:33:43;;;;;;;11.32;7.25;;;;;;;21.98;52.21;101654.25;6305827;22;20074;-86
2022/07/01 07:36:08;;;;;;;12.13;6.40;;;;;;;22.21;53.48;101649.38;6305326;22;20003;-85
2022/07/01 07:38:39;;;;;;;8.07;6.38;;;;;;;22.84;53.25;101682.59;6305537;22;20467;-86
2022/07/01 07:41:04;;;;;;;10.52;6.75;;;;;;;22.85;52.90;101594.72;6306274;22;20048;-85
2022/07/01 07:44:16;;;;;;;10.07;5.45;;;;;;;23.19;50.79;101690.34;6306949;22;20074;-84
2022/07/01 07:46:43;;;;;;;7.95;4.97;;;;;;;21.26;53.19;101617.53;6306507;22;20006;-89
2022/07/01 07:49:27;;;;;;;9.65;5.25;;;;;;;20.36;55.65;101613.69;6305811;22;20389;-86
2022/07/01 07:51:56;;;;;;;8.88;5.50;;;;;;;19.29;59.13;101515.88;6306508;22;20018;-86
2022/07/01 07:58:13;;;;;;;9.23;5.60;;;;;;;20.14;59.80;101701.34;6211938;23;20447;-82
2022/07/01 08:00:41;;;;;;;7.75;4.20;;;;;;;19.38;61.17;101630.31;6186679;23;20442;-90
2022/07/01 08:03:09;;;;;;;7.93;4.28;;;;;;;18.56;62.62;101514.41;6212132;23;20016;-87
2022/07/01 08:05:34;;;;;;;9.00;4.60;;;;;;;19.58;62.81;101688.84;6212235;23;20011;-88
2022/07/01 08:08:00;;;;;;;8.35;4.57;;;;;;;19.49;63.73;101713.19;6213106;23;20012;-81
2022/07/01 08:10:26;;;;;;;8.88;5.00;;;;;;;19.39;63.61;101720.19;6215116;23;20005;-82
2022/07/01 08:13:03;;;;;;;9.75;5.03;;;;;;;18.52;61.38;101609.81;6214578;23;20013;-82
2022/07/01 08:15:30;;;;;;;9.73;4.45;;;;;;;18.97;61.85;101678.38;6214219;22;20013;-82
2022/07/01 08:17:55;;;;;;;6.05;4.00;;;;;;;18.98;62.15;101711.47;6210584;23;20439;-81
2022/07/01 08:20:21;;;;;;;7.75;4.28;;;;;;;17.85;63.10;101542.22;6212889;23;20012;-80
2022/07/01 08:22:49;;;;;;;8.18;4.35;;;;;;;18.96;64.90;101725.63;6213601;23;20017;-82
2022/07/01 08:25:20;;;;;;;8.50;3.63;;;;;;;18.18;65.40;101577.78;6212091;23;20119;-81
2022/07/01 08:27:46;;;;;;;5.70;3.25;;;;;;;18.06;64.53;101538.66;6213552;23;20031;-84
2022/07/01 08:30:20;;;;;;;8.52;3.55;;;;;;;19.15;61.89;101717.88;6187566;23;20036;-87
2022/07/01 08:32:45;;;;;;;7.20;3.40;;;;;;;19.36;62.32;101736.97;6213628;23;20011;-85
2022/07/01 08:35:11;;;;;;;7.07;3.22;;;;;;;18.96;63.97;101666.25;6277223;22;20007;-90
2022/07/01 08:37:36;;;;;;;6.22;3.15;;;;;;;19.36;62.55;101704.72;6308522;22;20082;-88
2022/07/01 08:40:05;;;;;;;7.30;2.90;;;;;;;19.46;60.80;101737.84;6309056;22;20416;-85
2022/07/01 08:42:31;;;;;;;5.60;2.50;;;;;;;19.32;60.90;101743.47;6308182;22;20008;-89
2022/07/01 08:44:59;;;;;;;4.75;2.30;;;;;;;19.05;59.38;101690.81;6309903;22;20007;-93
2022/07/01 08:47:25;;;;;;;4.38;1.95;;;;;;;18.99;58.80;101707.88;6309935;22;20395;-87
2022/07/01 08:49:50;;;;;;;5.45;2.20;;;;;;;18.98;58.96;101700.16;6309055;22;20035;-91
2022/07/01 08:52:15;;;;;;;4.07;2.00;;;;;;;19.01;61.54;101705.13;6309136;22;20003;-91
2022/07/01 08:54:43;;;;;;;5.40;2.17;;;;;;;19.05;60.30;101720.44;6309701;22;20084;-84
2022/07/01 08:57:08;;;;;;;5.13;2.10;;;;;;;19.44;62.60;101759.91;6309232;22;20007;-89
2022/07/01 08:59:34;;;;;;;8.55;2.20;;;;;;;19.30;60.99;101734.91;6311105;22;20028;-87
2022/07/01 09:02:04;;;;;;;5.78;1.77;;;;;;;19.58;59.79;101769.25;6311060;22;20007;-88
2022/07/01 09:04:31;;;;;;;4.32;2.05;;;;;;;19.62;58.56;101770.63;6310337;22;20392;-85
2022/07/01 09:07:08;;;;;;;6.85;2.28;;;;;;;19.69;61.23;101762.13;6308162;22;19999;-87
2022/07/01 09:09:38;;;;;;;7.53;2.10;;;;;;;19.82;59.18;101761.03;6308450;22;20332;-87
2022/07/01 09:12:05;;;;;;;3.73;2.07;;;;;;;19.88;59.71;101748.25;6308654;22;20074;-88
2022/07/01 09:14:33;;;;;;;5.47;1.90;;;;;;;19.92;62.49;101754.84;6307991;22;20757;-88
2022/07/01 09:17:06;;;;;;;6.30;2.00;;;;;;;19.89;60.92;101754.31;6308095;22;20010;-86
2022/07/01 09:19:36;;;;;;;6.07;1.90;;;;;;;19.80;58.78;101742.00;6307655;22;20313;-85
2022/07/01 09:22:04;;;;;;;5.20;2.00;;;;;;;19.60;57.90;101752.44;6308148;22;20090;-84
2022/07/01 09:24:38;;;;;;;5.60;2.28;;;;;;;19.51;58.98;101760.22;6307987;22;20006;-86
2022/07/01 09:27:16;;;;;;;5.93;2.10;;;;;;;19.14;59.14;101708.34;6280150;22;20428;-88
2022/07/01 09:29:52;;;;;;;4.78;2.13;;;;;;;19.13;59.63;101730.28;6308068;22;20003;-86
2022/07/01 09:32:20;;;;;;;3.75;2.00;;;;;;;19.15;61.66;101730.97;6308235;22;20007;-85
2022/07/01 09:34:53;;;;;;;5.72;2.10;;;;;;;19.48;59.66;101764.78;6308056;22;19999;-91
2022/07/01 09:37:20;;;;;;;5.63;2.13;;;;;;;19.56;60.31;101764.13;6308825;22;20428;-93
2022/07/01 09:39:54;;;;;;;5.72;1.90;;;;;;;19.65;57.20;101762.50;6310478;22;19999;-81
2022/07/01 09:42:22;;;;;;;5.50;2.20;;;;;;;19.35;56.53;101685.56;6308998;22;20033;-88
2022/07/01 09:44:55;;;;;;;4.70;1.70;;;;;;;19.89;59.61;101734.16;6308002;22;20432;-91
2022/07/01 09:47:27;;;;;;;4.72;1.98;;;;;;;19.89;56.99;101773.50;6307818;22;20060;-91
2022/07/01 09:49:53;;;;;;;4.82;2.17;;;;;;;19.52;57.58;101722.56;6308349;22;20003;-92
2022/07/01 09:52:21;;;;;;;5.45;1.80;;;;;;;19.89;58.77;101743.81;6308191;22;20076;-82
2022/07/01 09:54:48;;;;;;;5.15;2.20;;;;;;;19.79;57.45;101724.63;6308001;22;20003;-92
2022/07/01 09:57:17;;;;;;;5.95;2.10;;;;;;;20.12;56.69;101771.47;6280256;22;20006;-90
2022/07/01 09:59:52;;;;;;;7.13;1.90;;;;;;;19.85;56.54;101730.13;6308006;22;20090;-91
2022/07/01 10:02:30;;;;;;;5.68;1.50;;;;;;;19.26;56.01;101673.25;6307939;22;20060;-91
2022/07/01 10:05:07;;;;;;;4.47;1.95;;;;;;;19.89;57.78;101776.09;6307718;22;20023;-85
2022/07/01 10:07:53;;;;;;;3.88;2.03;;;;;;;20.01;57.37;101775.03;6308336;22;20053;-84
2022/07/01 10:10:40;;;;;;;6.57;1.90;;;;;;;20.12;55.21;101784.56;6307659;22;20003;-88
2022/07/01 10:13:09;;;;;;;4.85;2.08;;;;;;;20.30;56.17;101788.19;6308711;22;20007;-90
2022/07/01 10:15:35;;;;;;;5.10;1.58;;;;;;;20.07;54.72;101781.53;6308134;22;20006;-83
2022/07/01 10:18:04;;;;;;;4.97;1.80;;;;;;;19.59;54.08;101750.78;6307714;22;20063;-86
2022/07/01 10:20:30;;;;;;;3.85;1.70;;;;;;;19.85;55.15;101798.28;6306766;22;20007;-91
2022/07/01 10:23:06;;;;;;;3.35;1.40;;;;;;;19.97;56.03;101804.28;6307361;22;20011;-84
2022/07/01 10:25:39;;;;;;;7.13;2.10;;;;;;;20.13;56.16;101799.34;6307010;22;20114;-88
2022/07/01 10:28:22;;;;;;;3.95;1.60;;;;;;;20.12;56.02;101808.16;6278559;22;20014;-87
2022/07/01 10:31:13;;;;;;;3.92;1.60;;;;;;;19.93;57.33;101798.47;6307553;22;20000;-88
2022/07/01 10:33:47;;;;;;;3.37;1.57;;;;;;;20.28;56.02;101811.09;6279314;22;20082;-85
2022/07/01 10:36:43;;;;;;;4.50;1.50;;;;;;;20.58;56.88;101814.63;6307150;22;20005;-82
2022/07/01 10:39:52;;;;;;;5.00;1.50;;;;;;;20.78;52.64;101815.44;6306565;22;20015;-88
2022/07/01 10:43:10;;;;;;;3.35;1.40;;;;;;;21.17;52.73;101810.97;6307411;22;20064;-87
2022/07/01 10:45:54;;;;;;;3.55;1.35;;;;;;;21.47;51.02;101820.47;6307134;22;20038;-83
2022/07/01 10:59:35;;;;;;;3.25;1.25;;;;;;;21.31;49.50;101800.03;6307263;22;20014;-85
2022/07/01 11:08:23;;;;;;;3.90;1.20;;;;;;;20.26;51.06;101610.25;6242510;23;20333;-86
2022/07/01 11:27:07;;;;;;;3.35;1.15;;;;;;;21.25;55.23;101728.84;6299003;22;20106;-88
2022/07/01 11:30:12;;;;;;;3.25;1.42;;;;;;;21.85;51.07;101785.31;6306192;22;20011;-85
2022/07/01 11:32:58;;;;;;;4.03;1.45;;;;;;;20.90;50.83;101630.53;6211712;23;20423;-85
2022/07/01 11:41:02;;;;;;;5.38;1.30;;;;;;;22.22;49.38;101777.34;6212059;23;20025;-88
2022/07/01 11:43:33;;;;;;;6.18;1.20;;;;;;;22.14;50.10;101784.34;6212662;23;20414;-89
2022/07/01 11:46:01;;;;;;;3.80;1.30;;;;;;;22.09;49.28;101781.31;6212709;23;20012;-91
2022/07/01 11:48:41;;;;;;;4.40;1.15;;;;;;;22.04;46.86;101764.16;6213148;23;20476;-90
2022/07/01 11:51:13;;;;;;;5.20;1.40;;;;;;;21.99;50.63;101778.69;6212921;23;20079;-91
2022/07/01 11:53:43;;;;;;;5.18;1.20;;;;;;;21.94;47.90;101770.44;6214275;23;20028;-91
2022/07/01 11:56:09;;;;;;;4.50;1.10;;;;;;;21.62;48.56;101715.66;6216324;23;20043;-88
2022/07/01 11:58:41;;;;;;;5.15;1.00;;;;;;;21.90;48.58;101772.53;6288081;22;20011;-92
2022/07/01 12:01:08;;;;;;;5.57;1.25;;;;;;;21.81;48.00;101769.94;6312316;22;20324;-85
2022/07/01 12:03:37;;;;;;;3.40;1.00;;;;;;;21.35;46.54;101762.00;6312067;22;20171;-91
2022/07/01 12:06:04;;;;;;;4.28;1.10;;;;;;;20.74;49.06;101751.88;6308615;22;20421;-91
2022/07/01 12:08:30;;;;;;;5.03;1.08;;;;;;;20.73;49.80;101759.91;6307648;22;20133;-91